Anchorage, AK

3:58 PM AKDT on September 16, 2014 (GMT -0800)
Merrill | Change Station
CLOSE
Current Station
Airport
Location: Anchorage Merrill,
Elevation: 135 ft
Nearby Weather Stations

Elev 135 ft 61.22 °N, 149.85 °W | Updated 5 minutes ago

Overcast
Overcast
56 °F
Feels Like 56 °F
N
7
Wind Variable Wind from NW

Today
High -- | Low -- °F
--% Chance of Precip.
Yesterday
High -- | Low -- °F
Precip. -- in
7:29 AM 8:17 PM
Last Quarter, 41% visible
Pressure 29.71 in
Visibility 10.0 miles
Clouds Overcast 6500 ft
Dew Point 44 °F
Humidity 64%
Rainfall 0.01 in
Snow Depth 3 in , 1 in , 1 in
UV 1 out of 12
Pollen Not available.
Air Quality Not available.
Flu Activity Not available.
METAR PAMR 162353Z 31006KT 10SM OVC065 13/07 A2970 RMK AO2 SLP059 T01330067 10139 20100 58011

More Conditions Fewer Conditions

Pressure 29.71 in
Visibility 10.0 miles
Clouds Overcast 6500 ft
Dew Point 44 °F
Humidity 64%
Rainfall 0.01 in
Snow Depth 3 in , 1 in , 1 in
UV 1 out of 12
Pollen Not available.
Air Quality Not available.
Flu Activity Not available.
METAR PAMR 162353Z 31006KT 10SM OVC065 13/07 A2970 RMK AO2 SLP059 T01330067 10139 20100 58011

More Conditions Fewer Conditions

10-Day Weather Forecast

Almanac

Astronomy

Sep. 16, 2014 Rise Set
Actual Time 7:29 AM AKDT 8:17 PM AKDT
Civil Twilight 6:45 AM AKDT 9:01 PM AKDT
Nautical Twilight 5:50 AM AKDT 9:55 PM AKDT
Astronomical Twilight 4:49 AM AKDT 10:56 PM AKDT
Moon No Moon Rise 5:03 PM AKDT
Length of Visible Light 14h 16m
Length of Day
12h 48m
Tomorrow will be 5m 40s shorter.
Last Quarter, 41% of the Moon is Illuminated
Today
Last Quarter
Sep 24
New
Oct 1
First Quarter
Oct 8
Full
Oct 15
Last Quarter

Today's Extremes

State Highs State Lows

Community

WunderPhotos

Upload Photos

1,753,917 photos uploaded!

Nearby

Snow Depth

Station Depth Elevation
Atigun Pass 3 in 4800 ft
Eagle Summit 1 in 3650 ft
Mcneil Canyon 1 in 1320 ft
Susitna Valley High 1 in 375 ft
Nuka Glacier 123 in 1250 ft

Earthquake Activity

City Distance Mag. Time & Date
No recent earthquake activity has been reported nearby.
Minimum magnitude displayed is 2.5.

Coastal Water Temperatures

Place Temperature
No Stations Reporting

Nearby Weather Stations